createdAt,value
2017-06-30T00:00:51.024Z,0.3
2017-06-30T00:01:49.738Z,0.1
2017-06-30T00:02:48.966Z,0.1
2017-06-30T00:03:48.181Z,0.2
2017-06-30T00:04:47.415Z,0.2
2017-06-30T00:05:47.087Z,0.2
2017-06-30T00:06:45.764Z,0.2
2017-06-30T00:07:45.486Z,0.2
2017-06-30T00:08:44.708Z,0.2
2017-06-30T00:09:43.916Z,0.2
2017-06-30T00:10:43.986Z,0.2
2017-06-30T00:11:42.313Z,0.3
2017-06-30T00:13:41.000Z,0.3
2017-06-30T00:14:40.234Z,0.3
2017-06-30T00:15:39.459Z,0.2
2017-06-30T00:16:38.750Z,0.1
2017-06-30T00:17:37.840Z,0.2
2017-06-30T00:18:37.055Z,0.2
2017-06-30T00:19:36.786Z,0.3
2017-06-30T00:20:36.013Z,0.2
2017-06-30T00:21:35.230Z,0.2
2017-06-30T00:22:34.584Z,0.1
2017-06-30T00:23:33.822Z,0.1
2017-06-30T00:24:33.044Z,0.2
2017-06-30T00:25:32.727Z,0.2
2017-06-30T00:26:31.341Z,0.2
2017-06-30T00:27:30.575Z,0.2
2017-06-30T00:28:30.540Z,0.2
2017-06-30T00:29:29.142Z,0.2
2017-06-30T00:31:27.655Z,0.2
2017-06-30T00:32:27.256Z,0.3
2017-06-30T00:33:26.482Z,0.3
2017-06-30T00:34:25.952Z,0.2
2017-06-30T00:36:24.061Z,0.3
2017-06-30T00:37:23.788Z,0.3
2017-06-30T00:38:23.002Z,0.3
2017-06-30T00:39:22.225Z,0.3
2017-06-30T00:40:21.733Z,0.1
2017-06-30T00:41:20.448Z,0.3
2017-06-30T00:42:20.172Z,0.1
2017-06-30T00:43:19.384Z,0.2
2017-06-30T00:44:19.189Z,0.2
2017-06-30T00:45:17.908Z,0.2
2017-06-30T00:46:17.386Z,0.2
2017-06-30T00:47:15.977Z,0.2
2017-06-30T00:49:14.734Z,0.2
2017-06-30T00:50:14.343Z,0.2
2017-06-30T00:51:13.564Z,0.2
2017-06-30T00:52:12.794Z,0.2
2017-06-30T00:53:12.006Z,0.2
2017-06-30T00:54:11.222Z,0.2
2017-06-30T00:55:10.441Z,0.2
2017-06-30T00:56:09.652Z,0.2
2017-06-30T00:57:08.860Z,0.2
2017-06-30T00:59:07.718Z,0.2
2017-06-30T01:00:06.815Z,0.2
2017-06-30T01:01:05.923Z,0.2
2017-06-30T01:02:05.055Z,0.2
2017-06-30T01:03:04.776Z,0.2
2017-06-30T01:04:04.018Z,0.2
2017-06-30T01:05:03.384Z,0.2
2017-06-30T01:06:02.482Z,0.2
2017-06-30T01:07:01.705Z,0.1
2017-06-30T01:08:00.919Z,0.2
2017-06-30T01:09:00.141Z,0.2
2017-06-30T01:09:59.483Z,0.3
2017-06-30T01:10:59.398Z,0.3
2017-06-30T01:11:58.098Z,0.1
2017-06-30T01:12:57.315Z,0.2
2017-06-30T01:13:56.519Z,0.2
2017-06-30T01:14:55.746Z,0.1
2017-06-30T01:15:26.157Z,0.1
2017-06-30T01:15:57.268Z,0.1
2017-06-30T01:16:27.738Z,0.1
2017-06-30T01:16:57.780Z,0.1
2017-06-30T01:17:28.306Z,0.1
2017-06-30T01:18:53.200Z,0.1
2017-06-30T01:19:52.422Z,0.1
2017-06-30T01:20:51.640Z,0.1
2017-06-30T01:21:51.117Z,0
2017-06-30T01:22:50.417Z,0
2017-06-30T01:23:49.128Z,0
2017-06-30T01:24:48.861Z,0
2017-06-30T01:25:48.084Z,0
2017-06-30T01:26:47.310Z,0
2017-06-30T01:27:46.770Z,-0.1
2017-06-30T01:28:45.489Z,-0.1
2017-06-30T01:29:45.084Z,-0.1
2017-06-30T01:30:44.387Z,-0.1
2017-06-30T01:31:43.603Z,-0.2
2017-06-30T01:32:42.821Z,-0.2
2017-06-30T01:33:42.201Z,-0.1
2017-06-30T01:34:41.304Z,-0.1
2017-06-30T01:35:40.288Z,-0.2
2017-06-30T01:36:39.902Z,-0.2
2017-06-30T01:37:11.039Z,-0.2
2017-06-30T01:37:41.072Z,-0.1
2017-06-30T01:38:11.605Z,-0.1
2017-06-30T01:38:42.460Z,-0.1
2017-06-30T01:39:12.483Z,-0.1
2017-06-30T01:40:36.747Z,-0.1
2017-06-30T01:41:35.966Z,-0.2
2017-06-30T01:42:35.578Z,-0.2
2017-06-30T01:44:34.428Z,-0.2
2017-06-30T01:45:33.145Z,-0.2
2017-06-30T01:46:32.365Z,-0.2
2017-06-30T01:47:31.583Z,-0.1
2017-06-30T01:48:31.298Z,-0.1
2017-06-30T01:49:30.553Z,-0.1
2017-06-30T01:50:29.912Z,-0.2
2017-06-30T01:51:28.641Z,-0.2
2017-06-30T01:52:28.351Z,-0.2
2017-06-30T01:53:27.450Z,-0.2
2017-06-30T01:54:26.669Z,-0.1
2017-06-30T01:55:26.078Z,-0.2
2017-06-30T01:55:56.856Z,-0.2
2017-06-30T01:56:26.879Z,-0.2
2017-06-30T01:56:57.977Z,-0.2
2017-06-30T01:58:23.870Z,-0.1
2017-06-30T01:59:23.079Z,-0.1
2017-06-30T02:01:21.928Z,-0.2
2017-06-30T02:02:20.634Z,-0.2
2017-06-30T02:03:19.862Z,0
2017-06-30T02:04:19.468Z,-0.1
2017-06-30T02:05:18.676Z,-0.2
2017-06-30T02:06:17.896Z,-0.1
2017-06-30T02:07:17.259Z,-0.1
2017-06-30T02:08:16.473Z,-0.1
2017-06-30T02:09:15.689Z,-0.1
2017-06-30T02:11:14.874Z,0
2017-06-30T02:12:13.604Z,0
2017-06-30T02:13:13.078Z,0
2017-06-30T02:14:11.801Z,0
2017-06-30T02:15:11.024Z,-0.1
2017-06-30T02:16:10.748Z,0
2017-06-30T02:17:09.975Z,0
2017-06-30T02:18:09.202Z,0
2017-06-30T02:19:08.562Z,0
2017-06-30T02:20:07.799Z,0
2017-06-30T02:21:07.469Z,0
2017-06-30T02:22:06.068Z,0
2017-06-30T02:23:05.758Z,0
2017-06-30T02:24:04.520Z,0
2017-06-30T02:25:04.227Z,0
2017-06-30T02:26:03.452Z,0
2017-06-30T02:27:02.684Z,0
2017-06-30T02:28:01.780Z,0
2017-06-30T02:29:00.993Z,0
2017-06-30T02:30:00.245Z,0
2017-06-30T02:30:59.725Z,0
2017-06-30T02:31:58.946Z,0
2017-06-30T02:32:58.154Z,0.1
2017-06-30T02:33:57.371Z,0
2017-06-30T02:34:56.608Z,0
2017-06-30T02:35:55.837Z,0
2017-06-30T02:36:55.310Z,0.1
2017-06-30T02:37:54.631Z,0.1
2017-06-30T02:38:53.871Z,0.1
2017-06-30T02:39:53.081Z,0.1
2017-06-30T02:40:52.301Z,0.1
2017-06-30T02:41:51.570Z,0.1
2017-06-30T02:42:51.040Z,0
2017-06-30T02:43:50.271Z,0.1
2017-06-30T02:44:49.497Z,0.1
2017-06-30T02:45:48.735Z,0
2017-06-30T02:46:47.850Z,0
2017-06-30T02:47:47.633Z,0.1
2017-06-30T02:48:46.597Z,0
2017-06-30T02:49:46.164Z,0.2
2017-06-30T02:50:44.873Z,0.1
2017-06-30T02:51:44.066Z,0.1
2017-06-30T02:52:43.276Z,0.1
2017-06-30T02:53:42.484Z,0.1
2017-06-30T02:54:43.016Z,0.1
2017-06-30T02:55:41.222Z,0.1
2017-06-30T02:56:40.419Z,0.1
2017-06-30T02:57:39.636Z,0.1
2017-06-30T02:58:38.848Z,0.1
2017-06-30T02:59:38.061Z,0
2017-06-30T03:00:37.911Z,0
2017-06-30T03:01:36.612Z,0
2017-06-30T03:02:36.320Z,0.1
2017-06-30T03:03:35.207Z,0
2017-06-30T03:04:34.805Z,0
2017-06-30T03:05:34.009Z,0.1
2017-06-30T03:06:33.483Z,0
2017-06-30T03:07:32.680Z,0.1
2017-06-30T03:08:31.531Z,0.1
2017-06-30T03:09:31.125Z,0
2017-06-30T03:10:30.327Z,0
2017-06-30T03:11:29.551Z,0
2017-06-30T03:12:28.886Z,0
2017-06-30T03:13:27.976Z,-0.1
2017-06-30T03:14:27.062Z,0.1
2017-06-30T03:15:26.777Z,0
2017-06-30T03:16:25.976Z,0
2017-06-30T03:17:25.051Z,0.1
2017-06-30T03:18:24.505Z,0.1
2017-06-30T03:19:23.756Z,0
2017-06-30T03:20:22.969Z,0.1
2017-06-30T03:21:22.173Z,0.1
2017-06-30T03:23:21.923Z,0.1
2017-06-30T03:24:20.381Z,0.1
2017-06-30T03:25:19.089Z,0.1
2017-06-30T03:26:18.285Z,0.1
2017-06-30T03:27:17.569Z,0.1
2017-06-30T03:28:17.269Z,0.1
2017-06-30T03:29:17.052Z,0.1
2017-06-30T03:30:15.902Z,0.1
2017-06-30T03:31:14.596Z,0
2017-06-30T03:32:14.182Z,0
2017-06-30T03:34:12.772Z,0.1
2017-06-30T03:35:11.974Z,0
2017-06-30T03:36:11.436Z,0
2017-06-30T03:37:10.523Z,0
2017-06-30T03:38:09.390Z,0
2017-06-30T03:39:09.106Z,0
2017-06-30T03:40:08.309Z,0
2017-06-30T03:41:07.442Z,0
2017-06-30T03:42:06.913Z,0
2017-06-30T03:43:05.998Z,0
2017-06-30T03:44:05.204Z,0
2017-06-30T03:45:05.436Z,0
2017-06-30T03:46:04.072Z,0
2017-06-30T03:47:03.169Z,0
2017-06-30T03:48:02.521Z,0
2017-06-30T03:49:02.302Z,0
2017-06-30T03:50:01.001Z,0.1
2017-06-30T03:51:00.203Z,0
2017-06-30T03:51:59.925Z,0
2017-06-30T03:52:58.629Z,0
2017-06-30T03:53:58.136Z,0
2017-06-30T03:54:28.152Z,0
2017-06-30T03:54:59.226Z,0.1
2017-06-30T03:55:29.135Z,0.1
2017-06-30T03:56:56.037Z,0.1
2017-06-30T03:57:55.129Z,0
2017-06-30T03:58:54.326Z,0
2017-06-30T03:59:53.830Z,0.1
2017-06-30T04:01:51.928Z,0.1
2017-06-30T04:02:51.643Z,0.1
2017-06-30T04:03:50.846Z,0.1
2017-06-30T04:04:50.623Z,0.1
2017-06-30T04:05:49.621Z,0.1
2017-06-30T04:06:48.323Z,0.1
2017-06-30T04:07:47.537Z,0
2017-06-30T04:08:47.278Z,0
2017-06-30T04:09:46.500Z,0.1
2017-06-30T04:10:45.718Z,0.1
2017-06-30T04:11:45.177Z,0.1
2017-06-30T04:12:43.884Z,0.1
2017-06-30T04:13:44.158Z,0.1
2017-06-30T04:14:43.301Z,0.1
2017-06-30T04:15:13.345Z,0.1
2017-06-30T04:15:43.734Z,0.1
2017-06-30T04:16:41.509Z,0.1
2017-06-30T04:17:40.477Z,0.1
2017-06-30T04:18:39.672Z,0.1
2017-06-30T04:19:38.874Z,0.1
2017-06-30T04:20:38.084Z,0.1
2017-06-30T04:21:37.281Z,0.1
2017-06-30T04:22:36.998Z,0
2017-06-30T04:24:35.459Z,0
2017-06-30T04:25:34.667Z,0
2017-06-30T04:26:33.859Z,0
2017-06-30T04:27:33.047Z,0
2017-06-30T04:28:32.253Z,0
2017-06-30T04:29:31.460Z,0
2017-06-30T04:30:30.809Z,0
2017-06-30T04:31:30.012Z,-0.1
2017-06-30T04:32:29.109Z,-0.1
2017-06-30T04:33:28.821Z,0
2017-06-30T04:34:29.191Z,0
2017-06-30T04:35:27.386Z,-0.1
2017-06-30T04:36:26.851Z,-0.1
2017-06-30T04:37:25.556Z,-0.1
2017-06-30T04:38:25.268Z,-0.1
2017-06-30T04:39:24.477Z,0
2017-06-30T04:40:23.323Z,-0.1
2017-06-30T04:41:23.022Z,0
2017-06-30T04:42:22.475Z,0
2017-06-30T04:43:20.936Z,0
2017-06-30T04:44:20.647Z,0
2017-06-30T04:45:19.906Z,0
2017-06-30T04:46:19.124Z,0
2017-06-30T04:47:18.206Z,0
2017-06-30T04:48:18.173Z,0
2017-06-30T04:49:17.023Z,0
2017-06-30T04:50:16.102Z,-0.1
2017-06-30T04:51:15.320Z,0
2017-06-30T04:52:15.029Z,0
2017-06-30T04:53:14.242Z,0
2017-06-30T04:54:13.711Z,-0.1
2017-06-30T04:55:12.401Z,-0.1
2017-06-30T04:56:12.113Z,0
2017-06-30T04:57:11.328Z,0
2017-06-30T04:58:11.107Z,0
2017-06-30T04:59:09.704Z,0
2017-06-30T05:00:08.816Z,0
2017-06-30T05:01:08.031Z,0
2017-06-30T05:02:07.743Z,0
2017-06-30T05:03:06.948Z,0
2017-06-30T05:04:06.027Z,0
2017-06-30T05:05:05.228Z,0
2017-06-30T05:06:04.687Z,0
2017-06-30T05:07:03.770Z,0
2017-06-30T05:08:03.366Z,0
2017-06-30T05:09:02.632Z,0
2017-06-30T05:10:01.716Z,0
2017-06-30T05:11:00.916Z,0
2017-06-30T05:12:00.389Z,0
2017-06-30T05:12:59.584Z,0
2017-06-30T05:14:58.066Z,0
2017-06-30T05:15:57.278Z,0
2017-06-30T05:16:56.476Z,0
2017-06-30T05:17:55.571Z,0
2017-06-30T05:18:55.275Z,0
2017-06-30T05:19:54.487Z,0
2017-06-30T05:20:53.682Z,0
2017-06-30T05:21:52.892Z,0
2017-06-30T05:22:52.099Z,-0.1
2017-06-30T05:23:51.562Z,0
2017-06-30T05:24:50.759Z,0
2017-06-30T05:25:49.965Z,0.1
2017-06-30T05:26:49.056Z,0
2017-06-30T05:27:48.764Z,0.1
2017-06-30T05:28:47.736Z,0
2017-06-30T05:29:47.193Z,0
2017-06-30T05:30:46.467Z,-0.1
2017-06-30T05:31:16.871Z,-0.1
2017-06-30T05:32:44.654Z,0
2017-06-30T05:33:44.367Z,0
2017-06-30T05:34:43.580Z,0
2017-06-30T05:35:42.918Z,-0.1
2017-06-30T05:37:41.010Z,-0.1
2017-06-30T05:38:40.722Z,-0.1
2017-06-30T05:39:39.806Z,-0.1
2017-06-30T05:40:39.008Z,0
2017-06-30T05:41:38.467Z,0
2017-06-30T05:42:37.677Z,0
2017-06-30T05:43:36.880Z,0
2017-06-30T05:44:36.085Z,-0.1
2017-06-30T05:45:35.287Z,-0.1
2017-06-30T05:46:34.492Z,0
2017-06-30T05:47:34.443Z,0
2017-06-30T05:48:33.714Z,-0.1
2017-06-30T05:49:32.422Z,0
2017-06-30T05:50:31.651Z,0
2017-06-30T05:51:30.857Z,0
2017-06-30T05:52:30.204Z,-0.1
2017-06-30T05:53:29.546Z,-0.1
2017-06-30T05:54:28.755Z,0
2017-06-30T05:55:27.852Z,0
2017-06-30T05:56:27.552Z,0
2017-06-30T05:58:26.150Z,0.1
2017-06-30T05:59:25.619Z,0
2017-06-30T06:00:24.720Z,0
2017-06-30T06:01:23.929Z,0
2017-06-30T06:02:23.146Z,0.1
2017-06-30T06:03:22.355Z,0.2
2017-06-30T06:04:21.558Z,0
2017-06-30T06:05:21.579Z,0
2017-06-30T06:06:20.280Z,0
2017-06-30T06:07:19.478Z,0
2017-06-30T06:08:18.684Z,0
2017-06-30T06:09:17.779Z,0
2017-06-30T06:10:17.369Z,0
2017-06-30T06:11:16.707Z,0
2017-06-30T06:12:15.792Z,0
2017-06-30T06:13:15.553Z,0
2017-06-30T06:14:14.125Z,0
2017-06-30T06:15:13.840Z,-0.1
2017-06-30T06:16:13.052Z,0
2017-06-30T06:17:12.507Z,0
2017-06-30T06:18:11.713Z,0
2017-06-30T06:19:10.922Z,0
2017-06-30T06:20:10.191Z,0
2017-06-30T06:21:09.397Z,0
2017-06-30T06:22:08.608Z,0
2017-06-30T06:23:08.055Z,0
2017-06-30T06:24:07.258Z,-0.1
2017-06-30T06:25:06.347Z,0
2017-06-30T06:26:05.435Z,0
2017-06-30T06:27:05.147Z,0.1
2017-06-30T06:28:04.364Z,0.1
2017-06-30T06:29:03.827Z,0.1
2017-06-30T06:30:03.592Z,0
2017-06-30T06:31:02.128Z,-0.1
2017-06-30T06:32:01.906Z,-0.1
2017-06-30T06:33:00.510Z,-0.1
2017-06-30T06:34:00.218Z,-0.1
2017-06-30T06:34:59.669Z,-0.1
2017-06-30T06:35:58.363Z,-0.2
2017-06-30T06:36:58.068Z,-0.1
2017-06-30T06:37:57.155Z,-0.1
2017-06-30T06:38:56.235Z,-0.1
2017-06-30T06:39:55.831Z,-0.2
2017-06-30T06:40:26.491Z,-0.2
2017-06-30T06:40:56.515Z,-0.1
2017-06-30T06:41:26.919Z,-0.1
2017-06-30T06:42:54.374Z,-0.1
2017-06-30T06:43:53.120Z,-0.1
2017-06-30T06:44:52.346Z,-0.1
2017-06-30T06:45:51.688Z,-0.1
2017-06-30T06:46:50.767Z,-0.1
2017-06-30T06:47:49.964Z,0
2017-06-30T06:48:49.056Z,0
2017-06-30T06:49:48.761Z,0
2017-06-30T06:50:47.731Z,-0.1
2017-06-30T06:51:47.182Z,0
2017-06-30T06:52:45.912Z,0
2017-06-30T06:53:45.494Z,-0.1
2017-06-30T06:55:44.475Z,0
2017-06-30T06:56:43.612Z,0
2017-06-30T06:57:43.074Z,0
2017-06-30T06:58:42.236Z,0
2017-06-30T06:59:41.442Z,-0.1
2017-06-30T07:00:40.658Z,-0.1
2017-06-30T07:01:40.438Z,-0.1
2017-06-30T07:02:39.149Z,-0.1
2017-06-30T07:03:38.617Z,-0.1
2017-06-30T07:05:37.219Z,0
2017-06-30T07:06:36.434Z,0
2017-06-30T07:07:35.522Z,-0.1
2017-06-30T07:08:35.107Z,0
2017-06-30T07:09:34.558Z,0
2017-06-30T07:10:33.548Z,-0.1
2017-06-30T07:11:32.770Z,-0.2
2017-06-30T07:12:31.971Z,-0.2
2017-06-30T07:13:31.561Z,-0.1
2017-06-30T07:14:30.786Z,-0.2
2017-06-30T07:15:30.113Z,-0.2
2017-06-30T07:16:29.194Z,-0.1
2017-06-30T07:17:28.297Z,-0.2
2017-06-30T07:18:27.896Z,-0.2
2017-06-30T07:19:27.099Z,-0.2
2017-06-30T07:20:26.310Z,-0.3
2017-06-30T07:21:26.278Z,-0.3
2017-06-30T07:22:24.976Z,-0.2
2017-06-30T07:23:24.200Z,-0.3
2017-06-30T07:24:23.160Z,-0.4
2017-06-30T07:25:22.868Z,-0.3
2017-06-30T07:26:22.081Z,-0.4
2017-06-30T07:27:21.600Z,-0.3
2017-06-30T07:28:20.806Z,-0.3
2017-06-30T07:29:20.023Z,-0.4
2017-06-30T07:30:19.235Z,-0.3
2017-06-30T07:31:18.950Z,-0.3
2017-06-30T07:32:18.141Z,-0.4
2017-06-30T07:33:17.473Z,-0.4
2017-06-30T07:34:16.738Z,-0.4
2017-06-30T07:35:15.946Z,-0.3
2017-06-30T07:36:15.148Z,-0.3
2017-06-30T07:37:14.352Z,-0.3
2017-06-30T07:38:13.455Z,-0.3
2017-06-30T07:39:13.423Z,-0.3
2017-06-30T07:40:12.134Z,-0.3
2017-06-30T07:41:11.850Z,-0.3
2017-06-30T07:42:11.061Z,-0.3
2017-06-30T07:43:10.260Z,-0.3
2017-06-30T07:44:09.476Z,-0.3
2017-06-30T07:45:08.924Z,-0.3
2017-06-30T07:46:08.130Z,-0.3
2017-06-30T07:47:06.987Z,-0.3
2017-06-30T07:48:06.576Z,-0.3
2017-06-30T07:49:05.784Z,-0.3
2017-06-30T07:50:05.071Z,-0.3
2017-06-30T07:51:04.903Z,-0.3
2017-06-30T07:52:04.109Z,-0.3
2017-06-30T07:54:02.210Z,-0.3
2017-06-30T07:55:01.789Z,-0.3
2017-06-30T07:56:01.452Z,-0.3
2017-06-30T07:57:00.408Z,-0.3
2017-06-30T07:57:59.375Z,-0.1
2017-06-30T07:58:59.087Z,-0.1
2017-06-30T07:59:58.297Z,0
2017-06-30T08:00:57.535Z,0
2017-06-30T08:01:57.310Z,-0.1
2017-06-30T08:02:56.262Z,-0.1
2017-06-30T08:03:55.482Z,-0.2
2017-06-30T08:04:26.560Z,-0.2
2017-06-30T08:04:56.576Z,-0.1
2017-06-30T08:05:54.338Z,0
2017-06-30T08:06:53.053Z,0
2017-06-30T08:07:52.764Z,-0.1
2017-06-30T08:08:52.121Z,-0.1
2017-06-30T08:09:51.947Z,-0.2
2017-06-30T08:10:50.597Z,-0.2
2017-06-30T08:11:49.804Z,-0.2
2017-06-30T08:12:49.008Z,-0.2
2017-06-30T08:13:48.219Z,-0.1
2017-06-30T08:14:48.248Z,-0.1
2017-06-30T08:15:47.535Z,-0.1
2017-06-30T08:16:46.248Z,-0.1
2017-06-30T08:17:45.451Z,-0.1
2017-06-30T08:18:44.665Z,-0.1
2017-06-30T08:19:43.936Z,-0.1
2017-06-30T08:20:43.400Z,-0.1
2017-06-30T08:21:42.603Z,-0.1
2017-06-30T08:22:42.223Z,-0.1
2017-06-30T08:23:41.431Z,0
2017-06-30T08:24:40.507Z,0
2017-06-30T08:25:39.474Z,0
2017-06-30T08:26:39.434Z,0
2017-06-30T08:27:38.634Z,0
2017-06-30T08:28:38.412Z,0
2017-06-30T08:29:37.120Z,0
2017-06-30T08:30:36.321Z,0.1
2017-06-30T08:31:35.538Z,0
2017-06-30T08:32:35.008Z,0.1
2017-06-30T08:33:34.774Z,0.1
2017-06-30T08:34:33.924Z,0.2
2017-06-30T08:36:31.909Z,0.2
2017-06-30T08:37:31.631Z,0.2
2017-06-30T08:38:30.855Z,0.2
2017-06-30T08:39:29.941Z,0.2
2017-06-30T08:40:29.159Z,0.2
2017-06-30T08:41:28.135Z,0.2
2017-06-30T08:42:27.858Z,0.2
2017-06-30T08:43:27.124Z,0.2
2017-06-30T08:44:26.467Z,0.2
2017-06-30T08:45:25.550Z,0.2
2017-06-30T08:46:25.132Z,0.2
2017-06-30T08:47:24.334Z,0.2
2017-06-30T08:48:23.546Z,0.3
2017-06-30T08:49:22.790Z,0.2
2017-06-30T08:50:23.309Z,0.2
2017-06-30T08:51:21.521Z,0.3
2017-06-30T08:52:20.734Z,0.3
2017-06-30T08:53:21.004Z,0.2
2017-06-30T08:54:19.589Z,0.2
2017-06-30T08:55:18.802Z,0
2017-06-30T08:56:18.148Z,0
2017-06-30T08:57:17.184Z,-0.1
2017-06-30T08:58:17.319Z,0
2017-06-30T08:59:16.021Z,0
2017-06-30T08:59:46.544Z,0
2017-06-30T09:00:16.960Z,0
2017-06-30T09:00:47.365Z,0
2017-06-30T09:02:14.013Z,0
2017-06-30T09:03:13.118Z,0.1
2017-06-30T09:04:12.829Z,0.1
2017-06-30T09:05:12.600Z,0
2017-06-30T09:06:11.864Z,0
2017-06-30T09:07:10.572Z,-0.1
2017-06-30T09:08:10.035Z,-0.1
2017-06-30T09:09:09.250Z,-0.2
2017-06-30T09:10:08.458Z,-0.2
2017-06-30T09:11:07.425Z,-0.1
2017-06-30T09:12:07.790Z,-0.1
2017-06-30T09:13:06.498Z,0.1
2017-06-30T09:14:06.398Z,0
2017-06-30T09:15:05.577Z,-0.1
2017-06-30T09:16:04.300Z,-0.1
2017-06-30T09:17:03.347Z,-0.1
2017-06-30T09:18:02.834Z,-0.1
2017-06-30T09:19:02.035Z,-0.2
2017-06-30T09:20:02.002Z,-0.2
2017-06-30T09:21:00.717Z,-0.2
2017-06-30T09:22:00.198Z,-0.1
2017-06-30T09:22:59.747Z,-0.2
2017-06-30T09:24:58.352Z,-0.2
2017-06-30T09:25:57.807Z,-0.3
2017-06-30T09:26:57.017Z,-0.3
2017-06-30T09:27:56.110Z,-0.3
2017-06-30T09:28:55.333Z,-0.2
2017-06-30T09:29:55.102Z,-0.2
2017-06-30T09:30:54.223Z,-0.2
2017-06-30T09:31:53.683Z,-0.1
2017-06-30T09:32:52.769Z,0
2017-06-30T09:33:51.990Z,-0.1
2017-06-30T09:34:51.651Z,-0.1
2017-06-30T09:35:50.732Z,-0.1
2017-06-30T09:36:49.698Z,0
2017-06-30T09:37:50.129Z,0.1
2017-06-30T09:38:48.217Z,0
2017-06-30T09:39:47.922Z,0
2017-06-30T09:40:18.320Z,0
2017-06-30T09:41:46.723Z,0.2
2017-06-30T09:42:45.935Z,0.1
2017-06-30T09:43:45.396Z,0
2017-06-30T09:45:43.985Z,0.2
2017-06-30T09:46:43.082Z,0.2
2017-06-30T09:47:42.278Z,0.2
2017-06-30T09:48:41.533Z,0.1
2017-06-30T09:49:41.387Z,0.2
2017-06-30T09:50:40.088Z,0.2
2017-06-30T09:51:39.798Z,0.2
2017-06-30T09:52:38.989Z,0.1
2017-06-30T09:53:38.213Z,0.1
2017-06-30T09:54:37.995Z,0.1
2017-06-30T09:55:36.816Z,0.1
2017-06-30T09:56:36.467Z,0.1
2017-06-30T09:57:35.554Z,0
2017-06-30T09:59:33.907Z,0
2017-06-30T10:00:33.492Z,0
2017-06-30T10:01:33.008Z,0.1
2017-06-30T10:02:32.785Z,0
2017-06-30T10:03:31.505Z,-0.1
2017-06-30T10:04:31.305Z,0
2017-06-30T10:05:30.022Z,0.1
2017-06-30T10:06:29.119Z,0.1
2017-06-30T10:07:29.092Z,0.1
2017-06-30T10:08:27.798Z,0.1
2017-06-30T10:09:27.516Z,0.1
2017-06-30T10:10:26.598Z,0.2
2017-06-30T10:11:26.189Z,0.3
2017-06-30T10:12:25.163Z,0.3
2017-06-30T10:13:24.509Z,0.3
2017-06-30T10:14:24.087Z,0.2
2017-06-30T10:15:23.292Z,0.2
2017-06-30T10:16:22.498Z,0.2
2017-06-30T10:17:21.694Z,0.2
2017-06-30T10:19:20.553Z,0.4
2017-06-30T10:20:19.638Z,0.4
2017-06-30T10:21:18.985Z,0.3
2017-06-30T10:22:18.568Z,0.3
2017-06-30T10:24:17.171Z,0.4
2017-06-30T10:25:16.631Z,0.5
2017-06-30T10:26:15.842Z,0.6
2017-06-30T10:27:15.064Z,0.5
2017-06-30T10:28:14.287Z,0.6
2017-06-30T10:29:13.499Z,0.5
2017-06-30T10:30:13.217Z,0.4
2017-06-30T10:31:12.688Z,0.5
2017-06-30T10:32:11.402Z,0.7
2017-06-30T10:33:11.118Z,0.6
2017-06-30T10:34:09.849Z,0.7
2017-06-30T10:35:09.547Z,0.7
2017-06-30T10:36:08.765Z,0.4
2017-06-30T10:37:08.717Z,0.2
2017-06-30T10:38:07.293Z,0.1
2017-06-30T10:39:06.874Z,0.1
2017-06-30T10:40:05.962Z,0.3
2017-06-30T10:41:05.558Z,0.3
2017-06-30T10:42:04.645Z,0.3
2017-06-30T10:43:04.597Z,0.4
2017-06-30T10:44:03.793Z,0.4
2017-06-30T10:45:02.888Z,0.5
2017-06-30T10:46:02.931Z,0.6
2017-06-30T10:47:01.650Z,0.5
2017-06-30T10:48:00.871Z,0.4
2017-06-30T10:49:00.214Z,0.4
2017-06-30T10:49:59.417Z,0.4
2017-06-30T10:50:59.130Z,0.4
2017-06-30T10:51:58.223Z,0.5
2017-06-30T10:52:57.839Z,0.5
2017-06-30T10:53:56.937Z,0.4
2017-06-30T10:54:56.389Z,0.3
2017-06-30T10:55:55.475Z,0.3
2017-06-30T10:56:55.187Z,0.4
2017-06-30T10:57:54.387Z,0.3
2017-06-30T10:58:53.601Z,0.3
2017-06-30T10:59:53.084Z,0.4
2017-06-30T11:01:51.932Z,0.5
2017-06-30T11:02:51.018Z,0.4
2017-06-30T11:03:49.874Z,0.6
2017-06-30T11:04:49.986Z,0.6
2017-06-30T11:05:49.202Z,0.6
2017-06-30T11:06:48.298Z,0.6
2017-06-30T11:07:48.266Z,0.3
2017-06-30T11:08:46.969Z,0.1
2017-06-30T11:10:46.066Z,-0.1
2017-06-30T11:11:45.277Z,0
2017-06-30T11:12:44.493Z,0.1
2017-06-30T11:13:43.887Z,-0.1
2017-06-30T11:14:42.978Z,-0.2
2017-06-30T11:15:42.449Z,0
2017-06-30T11:16:42.032Z,0
2017-06-30T11:17:41.241Z,0.1
2017-06-30T11:18:40.483Z,0.1
2017-06-30T11:19:11.771Z,0.1
2017-06-30T11:20:39.650Z,0.1
2017-06-30T11:21:38.764Z,0
2017-06-30T11:22:38.013Z,0.1
2017-06-30T11:23:37.724Z,0.2
2017-06-30T11:24:37.184Z,0.1
2017-06-30T11:25:36.385Z,0.3
2017-06-30T11:26:35.596Z,0.3
2017-06-30T11:27:34.795Z,0.2
2017-06-30T11:28:35.072Z,0.3
2017-06-30T11:29:33.780Z,0.3
2017-06-30T11:30:33.256Z,0.4
2017-06-30T11:31:32.466Z,0.5
2017-06-30T11:32:31.562Z,0.5
2017-06-30T11:33:31.144Z,0.4
2017-06-30T11:34:30.371Z,0.5
2017-06-30T11:35:30.166Z,0.6
2017-06-30T11:36:29.123Z,0.6
2017-06-30T11:37:28.093Z,0.5
2017-06-30T11:38:27.809Z,0.3
2017-06-30T11:39:27.582Z,0.2
2017-06-30T11:40:26.671Z,0.1
2017-06-30T11:41:25.752Z,0.1
2017-06-30T11:42:25.714Z,0.1
2017-06-30T11:43:24.333Z,0
2017-06-30T11:44:24.049Z,0
2017-06-30T11:45:23.262Z,-0.1
2017-06-30T11:46:22.346Z,-0.1
2017-06-30T11:47:22.060Z,-0.2
2017-06-30T11:48:21.517Z,-0.2
2017-06-30T11:49:20.618Z,-0.2
2017-06-30T11:50:20.254Z,-0.3
2017-06-30T11:51:19.478Z,-0.2
2017-06-30T11:52:19.128Z,-0.2
2017-06-30T11:53:18.323Z,0
2017-06-30T11:54:17.781Z,-0.1
2017-06-30T11:55:16.992Z,-0.1
2017-06-30T11:56:16.192Z,-0.1
2017-06-30T11:57:15.390Z,0
2017-06-30T11:58:14.977Z,-0.1
2017-06-30T11:59:13.871Z,0
2017-06-30T12:00:13.607Z,0
2017-06-30T12:01:13.314Z,-0.1
2017-06-30T12:01:43.831Z,-0.1
2017-06-30T12:03:11.678Z,0
2017-06-30T12:05:10.155Z,0.1
2017-06-30T12:06:10.009Z,0.1
2017-06-30T12:07:09.101Z,0.2
2017-06-30T12:08:09.404Z,0.2
2017-06-30T12:09:07.984Z,0.2
2017-06-30T12:10:07.193Z,0.3
2017-06-30T12:11:06.841Z,0.2
2017-06-30T12:12:06.503Z,0.1
2017-06-30T12:13:05.203Z,0.2
2017-06-30T12:14:05.368Z,0.3
2017-06-30T12:15:03.948Z,0.1
2017-06-30T12:16:03.650Z,0.1
2017-06-30T12:17:02.750Z,0
2017-06-30T12:18:02.205Z,-0.1
2017-06-30T12:19:01.986Z,-0.1
2017-06-30T12:20:00.687Z,0
2017-06-30T12:21:00.398Z,0.2
2017-06-30T12:21:59.608Z,0.4
2017-06-30T12:22:58.804Z,0.6
2017-06-30T12:24:58.086Z,0.7
2017-06-30T12:25:56.791Z,0.7
2017-06-30T12:26:56.497Z,0.6
2017-06-30T12:27:55.589Z,0.7
2017-06-30T12:30:54.333Z,1
2017-06-30T12:31:53.596Z,1
2017-06-30T12:32:52.805Z,0.9
2017-06-30T12:33:52.594Z,1
2017-06-30T12:34:51.313Z,0.9
2017-06-30T12:35:50.528Z,0.9
2017-06-30T12:36:50.498Z,0.8
2017-06-30T12:37:49.714Z,1.1
2017-06-30T12:38:48.926Z,1
2017-06-30T12:39:48.016Z,0.9
2017-06-30T12:40:48.239Z,0.9
2017-06-30T12:41:46.951Z,0.7
2017-06-30T12:42:46.463Z,0.9
2017-06-30T12:43:45.549Z,0.9
2017-06-30T12:44:45.326Z,0.8
2017-06-30T12:45:44.413Z,0.9
2017-06-30T12:46:43.785Z,0.7
2017-06-30T12:47:43.367Z,0.6
2017-06-30T12:48:42.823Z,0.7
2017-06-30T12:49:41.961Z,0.7
2017-06-30T12:50:41.675Z,0.5
2017-06-30T12:51:40.771Z,0.3
2017-06-30T12:52:39.855Z,0.4
2017-06-30T12:53:39.567Z,0.4
2017-06-30T12:54:39.012Z,0.4
2017-06-30T12:55:38.769Z,0.6
2017-06-30T12:56:37.988Z,0.4
2017-06-30T12:57:37.192Z,0.4
2017-06-30T12:58:36.409Z,0.4
2017-06-30T12:59:35.758Z,0.3
2017-06-30T13:00:36.773Z,0.4
2017-06-30T13:01:34.474Z,0.2
2017-06-30T13:02:34.183Z,0.3
2017-06-30T13:03:33.389Z,0.1
2017-06-30T13:04:32.594Z,0.1
2017-06-30T13:05:31.944Z,0.1
2017-06-30T13:06:31.778Z,0.3
2017-06-30T13:07:30.988Z,0.3
2017-06-30T13:08:30.221Z,0.4
2017-06-30T13:09:29.823Z,0.5
2017-06-30T13:10:29.597Z,0.6
2017-06-30T13:11:28.303Z,0.6
2017-06-30T13:11:58.958Z,0.6
2017-06-30T13:12:29.422Z,0.6
2017-06-30T13:12:59.956Z,0.6
2017-06-30T13:16:25.638Z,0.9
2017-06-30T13:17:25.099Z,0.9
2017-06-30T13:18:24.186Z,0.9
2017-06-30T13:19:23.394Z,0.8
2017-06-30T13:20:22.999Z,0.8
2017-06-30T13:21:22.275Z,0.7
2017-06-30T13:22:21.865Z,0.7
2017-06-30T13:23:21.320Z,0.7
2017-06-30T13:24:20.541Z,0.7
2017-06-30T13:25:19.744Z,0.8
2017-06-30T13:26:19.339Z,1
2017-06-30T13:27:18.942Z,1
2017-06-30T13:28:18.755Z,0.9
2017-06-30T13:29:17.751Z,0.7
2017-06-30T13:30:16.955Z,0.7
2017-06-30T13:31:16.056Z,0.8
2017-06-30T13:32:15.643Z,0.8
2017-06-30T13:33:15.352Z,1.1
2017-06-30T13:34:14.554Z,1
2017-06-30T13:35:14.478Z,1
2017-06-30T13:36:13.055Z,0.7
2017-06-30T13:37:13.325Z,0.8
2017-06-30T13:38:11.909Z,0.9
2017-06-30T13:39:11.614Z,0.7
2017-06-30T13:40:10.825Z,0.7
2017-06-30T13:41:10.289Z,0.9
2017-06-30T13:42:10.073Z,1
2017-06-30T13:43:09.210Z,1
2017-06-30T13:44:08.429Z,1.1
2017-06-30T13:45:07.632Z,1.4
2017-06-30T13:47:06.976Z,1.5
2017-06-30T13:48:06.814Z,1.8
2017-06-30T13:49:05.403Z,1.4
2017-06-30T13:50:05.104Z,1.1
2017-06-30T13:51:04.898Z,1
2017-06-30T13:52:03.362Z,0.8
2017-06-30T13:53:03.033Z,0.6
2017-06-30T13:54:02.236Z,0.6
2017-06-30T13:55:01.955Z,0.9
2017-06-30T13:56:01.717Z,0.9
2017-06-30T13:57:00.796Z,0.9
2017-06-30T13:57:59.998Z,0.7
2017-06-30T13:58:59.959Z,0.7
2017-06-30T13:59:58.544Z,0.7
2017-06-30T14:00:58.257Z,0.9
2017-06-30T14:01:57.475Z,0.8
2017-06-30T14:02:57.200Z,0.6
2017-06-30T14:03:56.323Z,0.7
2017-06-30T14:05:55.206Z,0.5
2017-06-30T14:06:54.924Z,0.4
2017-06-30T14:07:54.125Z,0.4
2017-06-30T14:08:53.221Z,0.4